Carrsville, Virginia
Current Conditions -  °F | °C
As of 1:35 PM on Sunday 21 Dec 2014 (Local Time) from KFKN Reporting Station
Broken Clouds Broken Clouds  
Wind Chill: 44°   Ceiling: 7500
Heat Index: 46°   Visibility: 10mi
Dew Point: 28°   Wind: 6mph
Humidity: 50%   Direction: 20°NNE
Pressure: 30.3"   Gusts: NA
Location:  36.71°N, 76.83°W
Report Text: KFKN 211835Z AUTO 02005KT 10SM BKN075 08/M02 A3030 RMK AO1
Loading
Personal Weather Stations






























Interactive Weather Map New forecast layout! Learn more

10-Day Weather Forecast

Advertisements
Track Severe Weather on mobile